Terminal Aerodrome Forecast
Issued by NWS Albany, NY

Home | Current Version | Previous Version | Text Only | Print | Product List | Glossary On
Versions: 1 2 3 4 5 6 7 8 9 10 11 12 13 14 15 16 17 18
000
FTUS41 KALY 281728
TAFPOU
TAF
KPOU 281728Z 2818/0118 VRB03KT P6SM SKC
     FM282200 00000KT P6SM SCT200
     FM010600 00000KT P6SM SCT100 OVC200
     FM011100 00000KT P6SM SCT040 OVC080
     FM011500 VRB03KT 4SM -SN BR SCT020 OVC040=

USA.gov is the U.S. government's official web portal to all federal, state and local government web resources and services.